sensor_id;sensor_type;location;lat;lon;timestamp;P1;durP1;ratioP1;P2;durP2;ratioP2
1725;SDS011;41776;48.260;8.928;2023-04-03T00:02:16;7.23;;;4.57;;
1725;SDS011;41776;48.260;8.928;2023-04-03T00:04:43;8.03;;;5.07;;
1725;SDS011;41776;48.260;8.928;2023-04-03T00:07:09;8.97;;;4.50;;
1725;SDS011;41776;48.260;8.928;2023-04-03T00:09:37;8.27;;;4.33;;
1725;SDS011;41776;48.260;8.928;2023-04-03T00:12:04;6.27;;;4.23;;
1725;SDS011;41776;48.260;8.928;2023-04-03T00:14:30;8.13;;;4.57;;
1725;SDS011;41776;48.260;8.928;2023-04-03T00:16:57;8.33;;;4.80;;
1725;SDS011;41776;48.260;8.928;2023-04-03T00:19:25;9.47;;;5.07;;
1725;SDS011;41776;48.260;8.928;2023-04-03T00:21:51;8.87;;;5.10;;
1725;SDS011;41776;48.260;8.928;2023-04-03T00:24:18;8.90;;;5.13;;
1725;SDS011;41776;48.260;8.928;2023-04-03T00:26:44;13.53;;;5.80;;
1725;SDS011;41776;48.260;8.928;2023-04-03T00:29:11;10.70;;;5.80;;
1725;SDS011;41776;48.260;8.928;2023-04-03T00:31:37;9.23;;;5.53;;
1725;SDS011;41776;48.260;8.928;2023-04-03T00:34:04;8.60;;;5.03;;
1725;SDS011;41776;48.260;8.928;2023-04-03T00:36:32;8.63;;;5.53;;
1725;SDS011;41776;48.260;8.928;2023-04-03T00:38:58;8.97;;;4.90;;
1725;SDS011;41776;48.260;8.928;2023-04-03T00:41:25;11.07;;;5.63;;
1725;SDS011;41776;48.260;8.928;2023-04-03T00:43:51;11.03;;;6.43;;
1725;SDS011;41776;48.260;8.928;2023-04-03T00:46:18;11.53;;;6.30;;
1725;SDS011;41776;48.260;8.928;2023-04-03T00:48:45;13.03;;;6.90;;
1725;SDS011;41776;48.260;8.928;2023-04-03T00:51:13;13.23;;;6.77;;
1725;SDS011;41776;48.260;8.928;2023-04-03T00:53:44;10.77;;;5.97;;
1725;SDS011;41776;48.260;8.928;2023-04-03T00:56:13;12.93;;;6.27;;
1725;SDS011;41776;48.260;8.928;2023-04-03T00:58:44;9.83;;;5.73;;
1725;SDS011;41776;48.260;8.928;2023-04-03T01:01:16;11.10;;;6.50;;
1725;SDS011;41776;48.260;8.928;2023-04-03T01:03:46;11.40;;;6.47;;
1725;SDS011;41776;48.260;8.928;2023-04-03T01:06:13;10.63;;;6.17;;
1725;SDS011;41776;48.260;8.928;2023-04-03T01:08:44;11.90;;;6.47;;
1725;SDS011;41776;48.260;8.928;2023-04-03T01:11:11;13.07;;;6.77;;
1725;SDS011;41776;48.260;8.928;2023-04-03T01:13:38;13.63;;;6.47;;
1725;SDS011;41776;48.260;8.928;2023-04-03T01:16:05;12.47;;;6.07;;
1725;SDS011;41776;48.260;8.928;2023-04-03T01:18:33;12.73;;;6.67;;
1725;SDS011;41776;48.260;8.928;2023-04-03T01:21:23;13.83;;;6.80;;
1725;SDS011;41776;48.260;8.928;2023-04-03T01:24:10;11.77;;;6.73;;
1725;SDS011;41776;48.260;8.928;2023-04-03T01:26:43;13.87;;;6.80;;
1725;SDS011;41776;48.260;8.928;2023-04-03T01:29:10;14.17;;;7.90;;
1725;SDS011;41776;48.260;8.928;2023-04-03T01:31:46;13.33;;;7.00;;
1725;SDS011;41776;48.260;8.928;2023-04-03T01:34:14;11.97;;;7.03;;
1725;SDS011;41776;48.260;8.928;2023-04-03T01:36:41;13.30;;;7.33;;
1725;SDS011;41776;48.260;8.928;2023-04-03T01:39:08;14.07;;;7.60;;
1725;SDS011;41776;48.260;8.928;2023-04-03T01:41:35;12.30;;;7.23;;
1725;SDS011;41776;48.260;8.928;2023-04-03T01:44:01;14.40;;;7.07;;
1725;SDS011;41776;48.260;8.928;2023-04-03T01:46:29;12.33;;;7.23;;
1725;SDS011;41776;48.260;8.928;2023-04-03T01:48:57;12.33;;;7.17;;
1725;SDS011;41776;48.260;8.928;2023-04-03T01:51:23;13.27;;;7.20;;
1725;SDS011;41776;48.260;8.928;2023-04-03T01:53:50;11.87;;;6.60;;
1725;SDS011;41776;48.260;8.928;2023-04-03T01:56:16;9.90;;;6.17;;
1725;SDS011;41776;48.260;8.928;2023-04-03T01:58:43;12.83;;;7.13;;
1725;SDS011;41776;48.260;8.928;2023-04-03T02:01:09;13.07;;;6.83;;
1725;SDS011;41776;48.260;8.928;2023-04-03T02:03:36;9.73;;;6.63;;
1725;SDS011;41776;48.260;8.928;2023-04-03T02:06:04;12.07;;;7.03;;
1725;SDS011;41776;48.260;8.928;2023-04-03T02:08:31;13.97;;;7.40;;
1725;SDS011;41776;48.260;8.928;2023-04-03T02:10:57;14.97;;;6.97;;
1725;SDS011;41776;48.260;8.928;2023-04-03T02:13:24;12.60;;;6.77;;
1725;SDS011;41776;48.260;8.928;2023-04-03T02:15:50;13.73;;;7.53;;
1725;SDS011;41776;48.260;8.928;2023-04-03T02:18:17;13.90;;;7.57;;
1725;SDS011;41776;48.260;8.928;2023-04-03T02:20:44;15.03;;;7.70;;
1725;SDS011;41776;48.260;8.928;2023-04-03T02:23:12;14.00;;;7.33;;
1725;SDS011;41776;48.260;8.928;2023-04-03T02:25:38;13.67;;;7.30;;
1725;SDS011;41776;48.260;8.928;2023-04-03T02:28:05;14.37;;;7.33;;
1725;SDS011;41776;48.260;8.928;2023-04-03T02:30:32;12.40;;;6.80;;
1725;SDS011;41776;48.260;8.928;2023-04-03T02:32:58;13.90;;;7.03;;
1725;SDS011;41776;48.260;8.928;2023-04-03T02:35:25;13.13;;;7.63;;
1725;SDS011;41776;48.260;8.928;2023-04-03T02:37:51;11.60;;;6.77;;
1725;SDS011;41776;48.260;8.928;2023-04-03T02:40:19;17.00;;;6.90;;
1725;SDS011;41776;48.260;8.928;2023-04-03T02:42:46;15.40;;;7.10;;
1725;SDS011;41776;48.260;8.928;2023-04-03T02:45:12;10.63;;;6.57;;
1725;SDS011;41776;48.260;8.928;2023-04-03T02:47:39;13.53;;;6.60;;
1725;SDS011;41776;48.260;8.928;2023-04-03T02:50:05;17.37;;;6.40;;
1725;SDS011;41776;48.260;8.928;2023-04-03T02:52:33;11.40;;;6.40;;
1725;SDS011;41776;48.260;8.928;2023-04-03T02:54:59;11.70;;;6.93;;
1725;SDS011;41776;48.260;8.928;2023-04-03T02:57:27;14.03;;;7.00;;
1725;SDS011;41776;48.260;8.928;2023-04-03T02:59:54;11.47;;;5.83;;
1725;SDS011;41776;48.260;8.928;2023-04-03T03:02:20;10.83;;;5.87;;
1725;SDS011;41776;48.260;8.928;2023-04-03T03:04:47;11.37;;;6.40;;
1725;SDS011;41776;48.260;8.928;2023-04-03T03:07:13;10.17;;;6.37;;
1725;SDS011;41776;48.260;8.928;2023-04-03T03:09:40;13.77;;;6.43;;
1725;SDS011;41776;48.260;8.928;2023-04-03T03:12:06;13.47;;;6.50;;
1725;SDS011;41776;48.260;8.928;2023-04-03T03:14:34;9.43;;;5.90;;
1725;SDS011;41776;48.260;8.928;2023-04-03T03:17:01;11.50;;;6.17;;
1725;SDS011;41776;48.260;8.928;2023-04-03T03:19:30;11.53;;;6.03;;
1725;SDS011;41776;48.260;8.928;2023-04-03T03:21:56;10.00;;;6.00;;
1725;SDS011;41776;48.260;8.928;2023-04-03T03:24:23;11.37;;;6.30;;
1725;SDS011;41776;48.260;8.928;2023-04-03T03:26:49;12.60;;;6.20;;
1725;SDS011;41776;48.260;8.928;2023-04-03T03:29:16;10.13;;;6.00;;
1725;SDS011;41776;48.260;8.928;2023-04-03T03:31:44;10.10;;;5.83;;
1725;SDS011;41776;48.260;8.928;2023-04-03T03:34:10;11.30;;;6.20;;
1725;SDS011;41776;48.260;8.928;2023-04-03T03:36:37;9.17;;;5.70;;
1725;SDS011;41776;48.260;8.928;2023-04-03T03:39:03;10.33;;;5.33;;
1725;SDS011;41776;48.260;8.928;2023-04-03T03:41:30;9.10;;;5.23;;
1725;SDS011;41776;48.260;8.928;2023-04-03T03:43:57;9.00;;;5.67;;
1725;SDS011;41776;48.260;8.928;2023-04-03T03:46:23;12.70;;;6.43;;
1725;SDS011;41776;48.260;8.928;2023-04-03T03:48:51;9.53;;;5.60;;
1725;SDS011;41776;48.260;8.928;2023-04-03T03:51:17;8.27;;;5.33;;
1725;SDS011;41776;48.260;8.928;2023-04-03T03:53:44;8.83;;;5.50;;
1725;SDS011;41776;48.260;8.928;2023-04-03T03:56:13;9.23;;;5.70;;
1725;SDS011;41776;48.260;8.928;2023-04-03T03:58:40;8.40;;;5.40;;
1725;SDS011;41776;48.260;8.928;2023-04-03T04:01:06;10.63;;;5.90;;
1725;SDS011;41776;48.260;8.928;2023-04-03T04:03:33;10.57;;;5.70;;
1725;SDS011;41776;48.260;8.928;2023-04-03T04:06:01;8.83;;;5.37;;
1725;SDS011;41776;48.260;8.928;2023-04-03T04:08:28;7.07;;;4.77;;
1725;SDS011;41776;48.260;8.928;2023-04-03T04:10:54;8.60;;;5.43;;
1725;SDS011;41776;48.260;8.928;2023-04-03T04:13:24;7.53;;;5.00;;
1725;SDS011;41776;48.260;8.928;2023-04-03T04:15:50;9.17;;;5.20;;
1725;SDS011;41776;48.260;8.928;2023-04-03T04:18:17;10.13;;;5.03;;
1725;SDS011;41776;48.260;8.928;2023-04-03T04:20:45;10.27;;;5.10;;
1725;SDS011;41776;48.260;8.928;2023-04-03T04:23:13;8.90;;;4.70;;
1725;SDS011;41776;48.260;8.928;2023-04-03T04:25:43;9.63;;;4.93;;
1725;SDS011;41776;48.260;8.928;2023-04-03T04:28:10;7.70;;;4.77;;
1725;SDS011;41776;48.260;8.928;2023-04-03T04:30:37;6.77;;;4.23;;
1725;SDS011;41776;48.260;8.928;2023-04-03T04:33:03;9.27;;;5.03;;
1725;SDS011;41776;48.260;8.928;2023-04-03T04:35:30;8.97;;;4.73;;
1725;SDS011;41776;48.260;8.928;2023-04-03T04:37:59;10.27;;;4.80;;
1725;SDS011;41776;48.260;8.928;2023-04-03T04:40:29;9.13;;;4.53;;
1725;SDS011;41776;48.260;8.928;2023-04-03T04:42:58;10.33;;;4.60;;
1725;SDS011;41776;48.260;8.928;2023-04-03T04:45:30;6.57;;;4.07;;
1725;SDS011;41776;48.260;8.928;2023-04-03T04:47:56;6.87;;;3.83;;
1725;SDS011;41776;48.260;8.928;2023-04-03T04:50:32;5.87;;;3.70;;
1725;SDS011;41776;48.260;8.928;2023-04-03T04:52:58;6.37;;;3.50;;
1725;SDS011;41776;48.260;8.928;2023-04-03T04:55:25;4.00;;;2.90;;
1725;SDS011;41776;48.260;8.928;2023-04-03T04:57:53;5.70;;;3.23;;
1725;SDS011;41776;48.260;8.928;2023-04-03T05:00:19;5.37;;;3.27;;
1725;SDS011;41776;48.260;8.928;2023-04-03T05:02:46;6.20;;;3.27;;
1725;SDS011;41776;48.260;8.928;2023-04-03T05:05:13;6.00;;;3.50;;
1725;SDS011;41776;48.260;8.928;2023-04-03T05:07:39;5.97;;;3.43;;
1725;SDS011;41776;48.260;8.928;2023-04-03T05:10:07;5.13;;;3.10;;
1725;SDS011;41776;48.260;8.928;2023-04-03T05:12:34;4.67;;;3.50;;
1725;SDS011;41776;48.260;8.928;2023-04-03T05:15:03;8.13;;;3.33;;
1725;SDS011;41776;48.260;8.928;2023-04-03T05:17:30;5.40;;;3.63;;
1725;SDS011;41776;48.260;8.928;2023-04-03T05:19:56;7.67;;;3.60;;
1725;SDS011;41776;48.260;8.928;2023-04-03T05:22:23;6.80;;;3.50;;
1725;SDS011;41776;48.260;8.928;2023-04-03T05:24:52;7.73;;;3.70;;
1725;SDS011;41776;48.260;8.928;2023-04-03T05:27:19;5.77;;;3.27;;
1725;SDS011;41776;48.260;8.928;2023-04-03T05:29:45;6.97;;;3.63;;
1725;SDS011;41776;48.260;8.928;2023-04-03T05:32:15;5.93;;;3.70;;
1725;SDS011;41776;48.260;8.928;2023-04-03T05:34:45;10.00;;;3.87;;
1725;SDS011;41776;48.260;8.928;2023-04-03T05:37:13;5.37;;;3.57;;
1725;SDS011;41776;48.260;8.928;2023-04-03T05:39:39;5.93;;;3.87;;
1725;SDS011;41776;48.260;8.928;2023-04-03T05:42:09;8.43;;;3.70;;
1725;SDS011;41776;48.260;8.928;2023-04-03T05:44:36;5.43;;;3.43;;
1725;SDS011;41776;48.260;8.928;2023-04-03T05:47:02;5.33;;;3.50;;
1725;SDS011;41776;48.260;8.928;2023-04-03T05:49:31;6.17;;;3.43;;
1725;SDS011;41776;48.260;8.928;2023-04-03T05:51:57;5.17;;;3.30;;
1725;SDS011;41776;48.260;8.928;2023-04-03T05:54:28;6.43;;;3.30;;
1725;SDS011;41776;48.260;8.928;2023-04-03T05:56:55;6.57;;;2.93;;
1725;SDS011;41776;48.260;8.928;2023-04-03T05:59:22;5.37;;;2.93;;
1725;SDS011;41776;48.260;8.928;2023-04-03T06:01:48;3.73;;;2.97;;
1725;SDS011;41776;48.260;8.928;2023-04-03T06:04:17;5.57;;;2.97;;
1725;SDS011;41776;48.260;8.928;2023-04-03T06:06:49;4.57;;;3.00;;
1725;SDS011;41776;48.260;8.928;2023-04-03T06:09:20;6.73;;;3.30;;
1725;SDS011;41776;48.260;8.928;2023-04-03T06:11:48;6.30;;;2.40;;
1725;SDS011;41776;48.260;8.928;2023-04-03T06:14:14;3.23;;;2.50;;
1725;SDS011;41776;48.260;8.928;2023-04-03T06:16:41;4.93;;;2.60;;
1725;SDS011;41776;48.260;8.928;2023-04-03T06:19:08;3.70;;;2.83;;
1725;SDS011;41776;48.260;8.928;2023-04-03T06:21:36;3.03;;;2.03;;
1725;SDS011;41776;48.260;8.928;2023-04-03T06:24:04;5.57;;;2.23;;
1725;SDS011;41776;48.260;8.928;2023-04-03T06:26:31;3.53;;;2.47;;
1725;SDS011;41776;48.260;8.928;2023-04-03T06:28:58;4.27;;;2.77;;
1725;SDS011;41776;48.260;8.928;2023-04-03T06:31:24;3.23;;;2.17;;
1725;SDS011;41776;48.260;8.928;2023-04-03T06:33:51;4.73;;;2.60;;
1725;SDS011;41776;48.260;8.928;2023-04-03T06:36:18;4.40;;;2.60;;
1725;SDS011;41776;48.260;8.928;2023-04-03T06:38:46;4.33;;;2.60;;
1725;SDS011;41776;48.260;8.928;2023-04-03T06:41:14;4.47;;;2.43;;
1725;SDS011;41776;48.260;8.928;2023-04-03T06:43:42;6.50;;;2.60;;
1725;SDS011;41776;48.260;8.928;2023-04-03T06:46:11;3.73;;;2.30;;
1725;SDS011;41776;48.260;8.928;2023-04-03T06:48:39;4.37;;;2.33;;
1725;SDS011;41776;48.260;8.928;2023-04-03T06:51:06;3.97;;;2.27;;
1725;SDS011;41776;48.260;8.928;2023-04-03T06:53:44;4.27;;;2.30;;
1725;SDS011;41776;48.260;8.928;2023-04-03T06:56:12;3.00;;;2.17;;
1725;SDS011;41776;48.260;8.928;2023-04-03T06:58:39;6.50;;;2.07;;
1725;SDS011;41776;48.260;8.928;2023-04-03T07:01:06;3.50;;;1.90;;
1725;SDS011;41776;48.260;8.928;2023-04-03T07:03:34;2.57;;;1.90;;
1725;SDS011;41776;48.260;8.928;2023-04-03T07:06:02;3.03;;;1.87;;
1725;SDS011;41776;48.260;8.928;2023-04-03T07:08:28;2.90;;;1.97;;
1725;SDS011;41776;48.260;8.928;2023-04-03T07:10:55;5.97;;;1.83;;
1725;SDS011;41776;48.260;8.928;2023-04-03T07:13:22;2.47;;;1.70;;
1725;SDS011;41776;48.260;8.928;2023-04-03T07:15:52;1.97;;;1.60;;
1725;SDS011;41776;48.260;8.928;2023-04-03T07:18:19;3.07;;;1.60;;
1725;SDS011;41776;48.260;8.928;2023-04-03T07:20:46;2.13;;;1.50;;
1725;SDS011;41776;48.260;8.928;2023-04-03T07:23:13;1.80;;;1.57;;
1725;SDS011;41776;48.260;8.928;2023-04-03T07:25:41;1.77;;;1.40;;
1725;SDS011;41776;48.260;8.928;2023-04-03T07:28:12;4.37;;;1.67;;
1725;SDS011;41776;48.260;8.928;2023-04-03T07:30:43;5.20;;;1.50;;
1725;SDS011;41776;48.260;8.928;2023-04-03T07:33:12;2.90;;;1.40;;
1725;SDS011;41776;48.260;8.928;2023-04-03T07:35:40;2.40;;;1.40;;
1725;SDS011;41776;48.260;8.928;2023-04-03T07:38:07;3.67;;;1.73;;
1725;SDS011;41776;48.260;8.928;2023-04-03T07:40:33;3.10;;;1.60;;
1725;SDS011;41776;48.260;8.928;2023-04-03T07:43:00;1.97;;;1.50;;
1725;SDS011;41776;48.260;8.928;2023-04-03T07:45:27;2.70;;;1.83;;
1725;SDS011;41776;48.260;8.928;2023-04-03T07:47:54;3.70;;;1.60;;
1725;SDS011;41776;48.260;8.928;2023-04-03T07:50:22;2.33;;;1.50;;
1725;SDS011;41776;48.260;8.928;2023-04-03T07:52:49;3.87;;;1.73;;
1725;SDS011;41776;48.260;8.928;2023-04-03T07:55:17;2.10;;;1.80;;
1725;SDS011;41776;48.260;8.928;2023-04-03T07:57:44;2.10;;;1.60;;
1725;SDS011;41776;48.260;8.928;2023-04-03T08:00:11;4.03;;;1.50;;
1725;SDS011;41776;48.260;8.928;2023-04-03T08:02:38;2.07;;;1.60;;
1725;SDS011;41776;48.260;8.928;2023-04-03T08:05:05;2.37;;;1.77;;
1725;SDS011;41776;48.260;8.928;2023-04-03T08:07:33;3.73;;;2.10;;
1725;SDS011;41776;48.260;8.928;2023-04-03T08:10:00;2.70;;;1.50;;
1725;SDS011;41776;48.260;8.928;2023-04-03T08:12:26;2.13;;;1.60;;
1725;SDS011;41776;48.260;8.928;2023-04-03T08:14:53;4.27;;;1.70;;
1725;SDS011;41776;48.260;8.928;2023-04-03T08:17:20;2.47;;;1.50;;
1725;SDS011;41776;48.260;8.928;2023-04-03T08:19:46;2.47;;;1.53;;
1725;SDS011;41776;48.260;8.928;2023-04-03T08:22:13;2.63;;;1.43;;
1725;SDS011;41776;48.260;8.928;2023-04-03T08:24:41;3.33;;;1.80;;
1725;SDS011;41776;48.260;8.928;2023-04-03T08:27:07;2.20;;;1.40;;
1725;SDS011;41776;48.260;8.928;2023-04-03T08:29:34;3.07;;;1.87;;
1725;SDS011;41776;48.260;8.928;2023-04-03T08:32:02;4.60;;;2.07;;
1725;SDS011;41776;48.260;8.928;2023-04-03T08:34:29;2.70;;;1.40;;
1725;SDS011;41776;48.260;8.928;2023-04-03T08:36:55;2.53;;;1.50;;
1725;SDS011;41776;48.260;8.928;2023-04-03T08:39:22;2.27;;;1.80;;
1725;SDS011;41776;48.260;8.928;2023-04-03T08:41:50;2.23;;;1.70;;
1725;SDS011;41776;48.260;8.928;2023-04-03T08:44:22;1.80;;;1.70;;
1725;SDS011;41776;48.260;8.928;2023-04-03T08:47:02;4.87;;;2.10;;
1725;SDS011;41776;48.260;8.928;2023-04-03T08:49:37;3.23;;;2.00;;
1725;SDS011;41776;48.260;8.928;2023-04-03T08:52:12;2.57;;;1.70;;
1725;SDS011;41776;48.260;8.928;2023-04-03T08:54:48;2.77;;;1.90;;
1725;SDS011;41776;48.260;8.928;2023-04-03T08:57:23;3.83;;;1.80;;
1725;SDS011;41776;48.260;8.928;2023-04-03T08:59:55;2.97;;;1.60;;
1725;SDS011;41776;48.260;8.928;2023-04-03T09:02:25;2.03;;;1.40;;
1725;SDS011;41776;48.260;8.928;2023-04-03T09:04:58;2.73;;;1.50;;
1725;SDS011;41776;48.260;8.928;2023-04-03T09:07:30;3.07;;;1.83;;
1725;SDS011;41776;48.260;8.928;2023-04-03T09:10:05;5.20;;;2.27;;
1725;SDS011;41776;48.260;8.928;2023-04-03T09:12:36;2.00;;;1.70;;
1725;SDS011;41776;48.260;8.928;2023-04-03T09:15:08;3.80;;;1.90;;
1725;SDS011;41776;48.260;8.928;2023-04-03T09:17:41;2.57;;;1.87;;
1725;SDS011;41776;48.260;8.928;2023-04-03T09:20:15;2.23;;;1.77;;
1725;SDS011;41776;48.260;8.928;2023-04-03T09:22:48;3.90;;;2.20;;
1725;SDS011;41776;48.260;8.928;2023-04-03T09:25:18;2.20;;;1.60;;
1725;SDS011;41776;48.260;8.928;2023-04-03T09:27:49;3.03;;;2.00;;
1725;SDS011;41776;48.260;8.928;2023-04-03T09:30:16;3.37;;;1.70;;
1725;SDS011;41776;48.260;8.928;2023-04-03T09:32:45;4.77;;;2.07;;
1725;SDS011;41776;48.260;8.928;2023-04-03T09:35:18;3.33;;;1.80;;
1725;SDS011;41776;48.260;8.928;2023-04-03T09:37:48;5.33;;;2.20;;
1725;SDS011;41776;48.260;8.928;2023-04-03T09:40:31;2.80;;;1.90;;
1725;SDS011;41776;48.260;8.928;2023-04-03T09:46:18;2.83;;;1.77;;
1725;SDS011;41776;48.260;8.928;2023-04-03T09:48:55;3.17;;;1.90;;
1725;SDS011;41776;48.260;8.928;2023-04-03T09:51:24;1.97;;;1.77;;
1725;SDS011;41776;48.260;8.928;2023-04-03T09:53:53;2.93;;;1.73;;
1725;SDS011;41776;48.260;8.928;2023-04-03T09:56:21;4.43;;;2.07;;
1725;SDS011;41776;48.260;8.928;2023-04-03T09:58:51;2.97;;;1.87;;
1725;SDS011;41776;48.260;8.928;2023-04-03T10:01:34;5.03;;;2.03;;
1725;SDS011;41776;48.260;8.928;2023-04-03T10:04:04;4.30;;;2.10;;
1725;SDS011;41776;48.260;8.928;2023-04-03T10:06:33;5.83;;;1.90;;
1725;SDS011;41776;48.260;8.928;2023-04-03T10:09:02;5.60;;;1.97;;
1725;SDS011;41776;48.260;8.928;2023-04-03T10:11:30;3.40;;;1.87;;
1725;SDS011;41776;48.260;8.928;2023-04-03T10:13:58;2.90;;;1.90;;
1725;SDS011;41776;48.260;8.928;2023-04-03T10:16:27;2.13;;;1.60;;
1725;SDS011;41776;48.260;8.928;2023-04-03T10:19:05;3.80;;;1.50;;
1725;SDS011;41776;48.260;8.928;2023-04-03T10:21:43;6.00;;;1.73;;
1725;SDS011;41776;48.260;8.928;2023-04-03T10:24:16;2.10;;;1.77;;
1725;SDS011;41776;48.260;8.928;2023-04-03T10:26:49;3.37;;;1.60;;
1725;SDS011;41776;48.260;8.928;2023-04-03T10:29:27;2.07;;;1.20;;
1725;SDS011;41776;48.260;8.928;2023-04-03T10:32:03;2.27;;;1.47;;
1725;SDS011;41776;48.260;8.928;2023-04-03T10:34:45;2.43;;;1.90;;
1725;SDS011;41776;48.260;8.928;2023-04-03T10:37:13;2.07;;;1.60;;
1725;SDS011;41776;48.260;8.928;2023-04-03T10:39:50;2.27;;;1.53;;
1725;SDS011;41776;48.260;8.928;2023-04-03T10:42:25;3.03;;;1.60;;
1725;SDS011;41776;48.260;8.928;2023-04-03T10:45:01;3.60;;;1.93;;
1725;SDS011;41776;48.260;8.928;2023-04-03T10:47:36;2.63;;;1.80;;
1725;SDS011;41776;48.260;8.928;2023-04-03T10:50:23;2.00;;;1.80;;
1725;SDS011;41776;48.260;8.928;2023-04-03T10:53:00;2.73;;;1.70;;
1725;SDS011;41776;48.260;8.928;2023-04-03T10:55:32;3.27;;;1.67;;
1725;SDS011;41776;48.260;8.928;2023-04-03T10:58:02;2.77;;;2.00;;
1725;SDS011;41776;48.260;8.928;2023-04-03T11:00:33;4.87;;;1.77;;
1725;SDS011;41776;48.260;8.928;2023-04-03T11:03:05;4.83;;;1.73;;
1725;SDS011;41776;48.260;8.928;2023-04-03T11:05:39;2.07;;;1.60;;
1725;SDS011;41776;48.260;8.928;2023-04-03T11:08:11;2.97;;;1.70;;
1725;SDS011;41776;48.260;8.928;2023-04-03T11:10:46;3.00;;;1.97;;
1725;SDS011;41776;48.260;8.928;2023-04-03T11:13:17;2.23;;;1.60;;
1725;SDS011;41776;48.260;8.928;2023-04-03T11:15:48;3.43;;;2.03;;
1725;SDS011;41776;48.260;8.928;2023-04-03T11:18:15;2.73;;;1.90;;
1725;SDS011;41776;48.260;8.928;2023-04-03T11:20:49;3.13;;;1.90;;
1725;SDS011;41776;48.260;8.928;2023-04-03T11:23:21;4.90;;;1.80;;
1725;SDS011;41776;48.260;8.928;2023-04-03T11:25:51;2.70;;;2.10;;
1725;SDS011;41776;48.260;8.928;2023-04-03T11:28:20;2.67;;;1.77;;
1725;SDS011;41776;48.260;8.928;2023-04-03T11:30:48;3.20;;;1.77;;
1725;SDS011;41776;48.260;8.928;2023-04-03T11:33:28;3.87;;;2.03;;
1725;SDS011;41776;48.260;8.928;2023-04-03T11:36:05;2.47;;;1.90;;
1725;SDS011;41776;48.260;8.928;2023-04-03T11:38:36;2.20;;;1.87;;
1725;SDS011;41776;48.260;8.928;2023-04-03T11:41:06;2.33;;;1.87;;
1725;SDS011;41776;48.260;8.928;2023-04-03T11:43:39;6.43;;;2.10;;
1725;SDS011;41776;48.260;8.928;2023-04-03T11:46:07;3.33;;;1.90;;
1725;SDS011;41776;48.260;8.928;2023-04-03T11:48:42;3.53;;;2.10;;
1725;SDS011;41776;48.260;8.928;2023-04-03T12:09:26;3.63;;;2.07;;
1725;SDS011;41776;48.260;8.928;2023-04-03T12:15:12;2.77;;;1.73;;
1725;SDS011;41776;48.260;8.928;2023-04-03T12:17:45;2.70;;;1.87;;
1725;SDS011;41776;48.260;8.928;2023-04-03T12:23:27;4.60;;;2.37;;
1725;SDS011;41776;48.260;8.928;2023-04-03T12:25:59;6.97;;;2.43;;
1725;SDS011;41776;48.260;8.928;2023-04-03T12:28:36;3.67;;;2.30;;
1725;SDS011;41776;48.260;8.928;2023-04-03T12:31:04;3.50;;;2.10;;
1725;SDS011;41776;48.260;8.928;2023-04-03T12:33:37;5.67;;;2.63;;
1725;SDS011;41776;48.260;8.928;2023-04-03T12:36:15;5.93;;;1.63;;
1725;SDS011;41776;48.260;8.928;2023-04-03T12:38:57;3.70;;;1.83;;
1725;SDS011;41776;48.260;8.928;2023-04-03T12:41:36;2.00;;;1.60;;
1725;SDS011;41776;48.260;8.928;2023-04-03T12:46:58;5.43;;;1.97;;
1725;SDS011;41776;48.260;8.928;2023-04-03T12:49:33;4.37;;;1.57;;
1725;SDS011;41776;48.260;8.928;2023-04-03T12:52:04;2.80;;;1.80;;
1725;SDS011;41776;48.260;8.928;2023-04-03T12:54:43;2.73;;;1.87;;
1725;SDS011;41776;48.260;8.928;2023-04-03T12:57:15;2.23;;;1.53;;
1725;SDS011;41776;48.260;8.928;2023-04-03T12:59:43;3.63;;;1.80;;
1725;SDS011;41776;48.260;8.928;2023-04-03T13:02:17;4.30;;;1.77;;
1725;SDS011;41776;48.260;8.928;2023-04-03T13:04:48;2.53;;;1.80;;
1725;SDS011;41776;48.260;8.928;2023-04-03T13:07:23;5.93;;;2.03;;
1725;SDS011;41776;48.260;8.928;2023-04-03T13:10:03;4.63;;;1.70;;
1725;SDS011;41776;48.260;8.928;2023-04-03T13:12:45;2.93;;;1.40;;
1725;SDS011;41776;48.260;8.928;2023-04-03T13:15:14;3.63;;;2.57;;
1725;SDS011;41776;48.260;8.928;2023-04-03T13:17:43;2.17;;;1.57;;
1725;SDS011;41776;48.260;8.928;2023-04-03T13:20:14;2.93;;;1.87;;
1725;SDS011;41776;48.260;8.928;2023-04-03T13:22:47;2.87;;;2.00;;
1725;SDS011;41776;48.260;8.928;2023-04-03T13:25:18;4.57;;;2.10;;
1725;SDS011;41776;48.260;8.928;2023-04-03T13:27:49;3.17;;;2.00;;
1725;SDS011;41776;48.260;8.928;2023-04-03T13:30:24;3.90;;;1.80;;
1725;SDS011;41776;48.260;8.928;2023-04-03T13:32:53;4.40;;;1.60;;
1725;SDS011;41776;48.260;8.928;2023-04-03T13:35:26;2.17;;;1.83;;
1725;SDS011;41776;48.260;8.928;2023-04-03T13:37:56;2.87;;;1.67;;
1725;SDS011;41776;48.260;8.928;2023-04-03T13:40:25;8.32;;;2.03;;
1725;SDS011;41776;48.260;8.928;2023-04-03T13:42:59;2.47;;;1.50;;
1725;SDS011;41776;48.260;8.928;2023-04-03T13:45:31;2.17;;;1.63;;
1725;SDS011;41776;48.260;8.928;2023-04-03T13:48:09;1.77;;;1.40;;
1725;SDS011;41776;48.260;8.928;2023-04-03T13:50:53;4.63;;;2.07;;
1725;SDS011;41776;48.260;8.928;2023-04-03T13:53:25;3.50;;;2.40;;
1725;SDS011;41776;48.260;8.928;2023-04-03T13:55:56;3.40;;;1.70;;
1725;SDS011;41776;48.260;8.928;2023-04-03T13:58:26;2.43;;;1.60;;
1725;SDS011;41776;48.260;8.928;2023-04-03T14:00:54;3.60;;;1.67;;
1725;SDS011;41776;48.260;8.928;2023-04-03T14:03:23;3.67;;;2.00;;
1725;SDS011;41776;48.260;8.928;2023-04-03T14:05:51;3.37;;;2.00;;
1725;SDS011;41776;48.260;8.928;2023-04-03T14:08:18;5.60;;;1.90;;
1725;SDS011;41776;48.260;8.928;2023-04-03T14:10:46;3.17;;;1.50;;
1725;SDS011;41776;48.260;8.928;2023-04-03T14:13:16;3.47;;;1.80;;
1725;SDS011;41776;48.260;8.928;2023-04-03T14:15:46;4.83;;;1.63;;
1725;SDS011;41776;48.260;8.928;2023-04-03T14:18:14;2.90;;;1.60;;
1725;SDS011;41776;48.260;8.928;2023-04-03T14:20:42;2.07;;;1.70;;
1725;SDS011;41776;48.260;8.928;2023-04-03T14:23:09;1.70;;;1.40;;
1725;SDS011;41776;48.260;8.928;2023-04-03T14:25:35;2.33;;;1.80;;
1725;SDS011;41776;48.260;8.928;2023-04-03T14:28:07;6.17;;;1.63;;
1725;SDS011;41776;48.260;8.928;2023-04-03T14:30:42;2.17;;;1.67;;
1725;SDS011;41776;48.260;8.928;2023-04-03T14:33:12;2.97;;;1.60;;
1725;SDS011;41776;48.260;8.928;2023-04-03T14:35:40;5.77;;;1.53;;
1725;SDS011;41776;48.260;8.928;2023-04-03T14:38:11;2.73;;;1.40;;
1725;SDS011;41776;48.260;8.928;2023-04-03T14:40:41;4.27;;;1.70;;
1725;SDS011;41776;48.260;8.928;2023-04-03T14:43:09;2.83;;;1.80;;
1725;SDS011;41776;48.260;8.928;2023-04-03T14:45:38;3.20;;;1.73;;
1725;SDS011;41776;48.260;8.928;2023-04-03T14:48:09;3.67;;;1.70;;
1725;SDS011;41776;48.260;8.928;2023-04-03T14:50:41;3.33;;;1.83;;
1725;SDS011;41776;48.260;8.928;2023-04-03T14:53:10;2.73;;;1.70;;
1725;SDS011;41776;48.260;8.928;2023-04-03T14:55:39;4.70;;;1.80;;
1725;SDS011;41776;48.260;8.928;2023-04-03T14:58:07;4.87;;;1.70;;
1725;SDS011;41776;48.260;8.928;2023-04-03T15:00:35;3.80;;;1.80;;
1725;SDS011;41776;48.260;8.928;2023-04-03T15:03:02;1.87;;;1.60;;
1725;SDS011;41776;48.260;8.928;2023-04-03T15:05:30;3.33;;;1.40;;
1725;SDS011;41776;48.260;8.928;2023-04-03T15:07:57;4.50;;;1.50;;
1725;SDS011;41776;48.260;8.928;2023-04-03T15:10:26;2.10;;;1.73;;
1725;SDS011;41776;48.260;8.928;2023-04-03T15:12:54;2.57;;;1.60;;
1725;SDS011;41776;48.260;8.928;2023-04-03T15:15:21;2.90;;;1.43;;
1725;SDS011;41776;48.260;8.928;2023-04-03T15:17:50;3.23;;;1.60;;
1725;SDS011;41776;48.260;8.928;2023-04-03T15:20:20;2.43;;;1.73;;
1725;SDS011;41776;48.260;8.928;2023-04-03T15:22:49;6.20;;;1.80;;
1725;SDS011;41776;48.260;8.928;2023-04-03T15:25:16;3.10;;;1.63;;
1725;SDS011;41776;48.260;8.928;2023-04-03T15:27:43;1.97;;;1.60;;
1725;SDS011;41776;48.260;8.928;2023-04-03T15:30:13;2.57;;;1.83;;
1725;SDS011;41776;48.260;8.928;2023-04-03T15:32:41;5.70;;;1.60;;
1725;SDS011;41776;48.260;8.928;2023-04-03T15:35:08;1.80;;;1.30;;
1725;SDS011;41776;48.260;8.928;2023-04-03T15:37:34;2.83;;;1.60;;
1725;SDS011;41776;48.260;8.928;2023-04-03T15:40:03;3.87;;;1.67;;
1725;SDS011;41776;48.260;8.928;2023-04-03T15:42:31;3.43;;;1.70;;